Time;durP1;ratioP1;P1;durP2;ratioP2;P2;SDS_P1;SDS_P2;PMS_P1;PMS_P2;Temp;Humidity;BMP_temperature;BMP_pressure;BME280_temperature;BME280_humidity;BME280_pressure;Samples;Min_cycle;Max_cycle;Signal;HPM_P1;HPM_P2
2023/08/08 00:02:15;;;;;;;6.72;2.63;;;;;;;21.99;57.21;100256.41;4970320;28;20121;-77
2023/08/08 00:04:41;;;;;;;11.85;2.08;;;;;;;21.91;54.23;100257.44;4970834;28;20061;-78
2023/08/08 00:07:06;;;;;;;7.25;2.35;;;;;;;21.88;57.62;100252.38;4970542;28;20030;-77
2023/08/08 00:09:32;;;;;;;7.43;2.55;;;;;;;21.84;56.23;100255.69;4970345;28;20038;-77
2023/08/08 00:11:58;;;;;;;14.15;2.30;;;;;;;21.85;58.33;100254.66;4970638;28;20031;-78
2023/08/08 00:14:24;;;;;;;9.43;2.42;;;;;;;21.86;55.59;100262.69;4970216;28;20093;-77
2023/08/08 00:16:49;;;;;;;3.85;2.47;;;;;;;21.89;53.82;100266.94;4970363;28;20110;-77
2023/08/08 00:19:15;;;;;;;4.88;2.30;;;;;;;21.73;54.44;100250.84;4970592;28;20038;-76
2023/08/08 00:21:40;;;;;;;7.80;3.33;;;;;;;21.73;55.12;100253.56;4970345;28;20516;-78
2023/08/08 00:24:06;;;;;;;13.00;3.17;;;;;;;21.79;55.82;100252.75;4970207;28;20542;-77
2023/08/08 00:26:31;;;;;;;16.25;3.53;;;;;;;21.80;55.67;100257.19;4952093;28;20042;-78
2023/08/08 00:28:57;;;;;;;11.73;3.20;;;;;;;21.82;57.13;100250.44;4970250;28;20054;-77
2023/08/08 00:31:22;;;;;;;16.73;3.38;;;;;;;21.69;55.63;100242.19;4970116;28;20419;-81
2023/08/08 00:33:48;;;;;;;13.05;3.10;;;;;;;21.73;54.87;100245.34;4970170;28;20498;-77
2023/08/08 00:36:13;;;;;;;15.52;2.97;;;;;;;21.73;54.95;100256.31;4970836;28;20105;-78
2023/08/08 00:38:39;;;;;;;13.57;2.80;;;;;;;21.74;54.86;100261.59;4973911;28;20038;-77
2023/08/08 00:41:05;;;;;;;10.88;3.05;;;;;;;21.67;56.10;100250.63;4974190;28;20050;-78
2023/08/08 00:43:30;;;;;;;8.85;2.47;;;;;;;21.66;54.29;100254.41;4974776;28;20037;-76
2023/08/08 00:45:57;;;;;;;3.40;1.83;;;;;;;21.60;58.22;100232.47;4973917;28;20081;-77
2023/08/08 00:48:22;;;;;;;14.30;3.90;;;;;;;21.63;55.66;100256.69;4974305;28;20039;-81
2023/08/08 00:50:49;;;;;;;13.38;2.65;;;;;;;21.52;55.28;100244.47;4973954;28;20027;-77
2023/08/08 00:53:15;;;;;;;10.63;2.63;;;;;;;21.50;54.83;100241.06;4973779;28;20037;-78
2023/08/08 00:55:41;;;;;;;6.60;1.70;;;;;;;21.50;54.76;100241.06;4973964;28;20047;-78
2023/08/08 00:58:06;;;;;;;7.28;2.15;;;;;;;21.54;54.52;100258.78;4973755;28;20092;-79
2023/08/08 01:00:32;;;;;;;8.18;1.92;;;;;;;21.55;53.83;100254.16;4973319;28;20046;-78
2023/08/08 01:02:57;;;;;;;9.20;1.70;;;;;;;21.50;53.64;100240.22;4973798;28;20034;-79
2023/08/08 01:05:24;;;;;;;8.10;1.42;;;;;;;21.51;54.50;100248.25;4974137;28;20027;-79
2023/08/08 01:07:59;;;;;;;7.18;1.20;;;;;;;21.56;53.38;100253.06;4973644;28;20034;-81
2023/08/08 01:10:28;;;;;;;4.25;1.30;;;;;;;21.59;54.91;100259.00;4974210;28;20027;-79
2023/08/08 01:12:59;;;;;;;5.28;1.80;;;;;;;21.56;53.75;100262.13;4973755;28;20023;-79
2023/08/08 01:15:25;;;;;;;4.50;1.23;;;;;;;21.62;54.27;100269.53;4974046;28;20027;-79
2023/08/08 01:17:51;;;;;;;2.92;1.40;;;;;;;21.60;54.38;100263.44;4973978;28;20076;-78
2023/08/08 01:20:18;;;;;;;8.23;2.53;;;;;;;21.61;53.96;100265.13;4973879;28;20557;-78
2023/08/08 01:23:06;;;;;;;4.15;1.42;;;;;;;21.58;53.63;100248.25;4973854;28;20038;-78
2023/08/08 01:25:32;;;;;;;4.35;1.42;;;;;;;21.44;54.95;100241.88;4973439;28;20031;-78
2023/08/08 01:27:57;;;;;;;9.10;1.30;;;;;;;21.61;56.30;100259.66;4974118;28;20082;-81
2023/08/08 01:30:23;;;;;;;2.75;1.50;;;;;;;21.59;54.84;100261.72;4973752;28;20039;-79
2023/08/08 01:32:48;;;;;;;4.47;1.20;;;;;;;21.56;56.89;100240.25;4974326;28;20380;-78
2023/08/08 01:35:14;;;;;;;1.75;1.27;;;;;;;21.55;54.36;100249.53;4974380;28;20410;-79
2023/08/08 01:37:48;;;;;;;5.57;1.33;;;;;;;21.34;55.75;100229.66;4974446;28;20084;-79
2023/08/08 01:40:16;;;;;;;3.38;1.55;;;;;;;21.40;57.97;100224.22;4974049;28;20030;-79
2023/08/08 01:42:45;;;;;;;5.00;1.20;;;;;;;21.48;56.61;100254.13;4990054;28;20109;-80
2023/08/08 01:45:11;;;;;;;6.10;1.33;;;;;;;21.19;57.30;100221.59;4952904;28;20043;-79
2023/08/08 01:47:37;;;;;;;3.00;1.30;;;;;;;21.13;57.69;100211.44;4953440;28;20554;-80
2023/08/08 01:50:02;;;;;;;5.22;1.33;;;;;;;21.17;58.13;100223.66;4953118;29;20043;-80
2023/08/08 01:52:28;;;;;;;4.32;1.65;;;;;;;21.34;59.45;100257.00;4937071;29;20027;-79
2023/08/08 01:54:53;;;;;;;2.63;1.42;;;;;;;21.24;58.64;100257.38;4936985;29;20491;-83
2023/08/08 01:57:19;;;;;;;7.85;1.50;;;;;;;21.00;58.95;100214.09;4937186;29;20030;-80
2023/08/08 01:59:47;;;;;;;5.18;1.38;;;;;;;20.97;59.81;100217.22;4937286;29;20042;-80
2023/08/08 02:02:13;;;;;;;4.70;1.60;;;;;;;21.11;61.07;100241.75;4952819;29;20023;-83
2023/08/08 02:04:39;;;;;;;2.58;1.35;;;;;;;21.09;60.86;100232.06;4953459;29;20599;-81
2023/08/08 02:07:04;;;;;;;9.80;1.65;;;;;;;20.97;60.99;100218.09;4952834;29;20550;-82
2023/08/08 02:09:30;;;;;;;2.45;1.33;;;;;;;21.18;60.67;100258.19;4936773;29;20027;-81
2023/08/08 02:11:55;;;;;;;1.88;1.20;;;;;;;21.00;61.59;100227.75;4937068;29;20038;-81
2023/08/08 02:14:21;;;;;;;1.88;1.30;;;;;;;20.85;60.96;100202.44;4953013;29;20038;-81
2023/08/08 02:16:46;;;;;;;1.75;1.27;;;;;;;21.00;60.99;100230.50;4969127;28;20071;-82
2023/08/08 02:19:12;;;;;;;8.18;1.85;;;;;;;20.98;61.17;100227.09;4973892;28;20062;-82
2023/08/08 02:21:37;;;;;;;3.15;1.40;;;;;;;21.08;61.65;100244.88;4974263;28;20049;-82
2023/08/08 02:24:03;;;;;;;4.97;1.40;;;;;;;20.92;62.04;100203.31;4974499;28;20483;-81
2023/08/08 02:26:29;;;;;;;3.08;1.40;;;;;;;20.87;62.10;100206.66;4974186;28;20030;-83
2023/08/08 02:28:54;;;;;;;1.67;1.27;;;;;;;20.86;62.16;100217.78;4974095;28;20033;-86
2023/08/08 02:31:23;;;;;;;3.83;1.42;;;;;;;20.89;62.32;100218.22;4974235;28;20037;-83
2023/08/08 02:33:50;;;;;;;6.15;1.42;;;;;;;20.85;61.55;100224.31;4974002;28;20089;-83
2023/08/08 02:36:16;;;;;;;2.67;1.50;;;;;;;20.83;61.72;100231.84;4974823;28;20470;-83
2023/08/08 02:38:41;;;;;;;8.00;1.63;;;;;;;20.92;62.19;100252.50;4975016;28;20027;-83
2023/08/08 02:41:07;;;;;;;2.05;1.33;;;;;;;20.94;62.49;100266.84;4975987;28;20026;-87
2023/08/08 02:43:32;;;;;;;4.82;1.77;;;;;;;20.85;62.81;100251.66;4984649;28;20023;-84
2023/08/08 02:45:58;;;;;;;7.18;1.52;;;;;;;20.94;62.18;100266.84;4976383;28;20122;-85
2023/08/08 02:48:23;;;;;;;2.05;1.30;;;;;;;21.04;62.40;100283.72;4975369;28;20494;-84
2023/08/08 02:50:48;;;;;;;6.68;1.45;;;;;;;21.07;62.72;100284.16;4976290;28;20031;-86
2023/08/08 02:53:14;;;;;;;5.15;1.48;;;;;;;21.07;61.41;100288.78;4977327;28;20027;-87
2023/08/08 02:55:39;;;;;;;9.35;1.77;;;;;;;21.10;62.14;100282.94;4993423;28;20034;-86
2023/08/08 02:58:05;;;;;;;3.35;1.70;;;;;;;21.10;62.59;100285.69;4992143;28;20039;-85
2023/08/08 03:00:31;;;;;;;4.65;2.03;;;;;;;21.20;62.73;100293.53;4991125;28;20075;-90
2023/08/08 03:02:56;;;;;;;2.90;1.35;;;;;;;21.24;62.04;100289.34;4975944;28;20031;-86
2023/08/08 03:05:22;;;;;;;4.32;1.30;;;;;;;21.18;62.02;100285.53;4976355;28;20093;-86
2023/08/08 03:07:47;;;;;;;6.68;2.78;;;;;;;21.26;62.29;100298.19;4978428;28;20085;-87
2023/08/08 03:10:13;;;;;;;12.05;2.25;;;;;;;21.23;62.20;100295.88;4973217;28;20402;-86
2023/08/08 03:12:39;;;;;;;8.05;1.67;;;;;;;21.22;62.79;100292.31;4973058;28;20454;-85
2023/08/08 03:15:05;;;;;;;2.90;1.60;;;;;;;21.03;62.17;100271.13;4972558;28;20031;-86
2023/08/08 03:17:31;;;;;;;5.43;2.17;;;;;;;21.30;64.21;100305.81;4972052;28;20038;-85
2023/08/08 03:19:56;;;;;;;2.67;1.67;;;;;;;21.27;62.40;100298.00;4972191;28;20035;-85
2023/08/08 03:22:21;;;;;;;3.30;1.70;;;;;;;21.28;62.56;100293.38;4972102;28;20192;-85
2023/08/08 03:24:47;;;;;;;2.70;1.75;;;;;;;21.28;63.61;100313.38;4971928;28;20027;-87
2023/08/08 03:27:12;;;;;;;11.13;2.50;;;;;;;21.35;63.27;100314.25;4971771;28;20490;-87
2023/08/08 03:29:38;;;;;;;4.82;2.10;;;;;;;21.38;63.97;100323.94;4971564;28;20121;-86
2023/08/08 03:32:04;;;;;;;1.77;1.50;;;;;;;21.31;62.95;100323.06;4969967;28;20026;-86
2023/08/08 03:34:30;;;;;;;5.45;2.45;;;;;;;21.36;62.76;100315.94;4971252;28;20039;-86
2023/08/08 03:36:56;;;;;;;5.05;2.25;;;;;;;21.37;62.20;100312.16;4971287;28;20037;-88
2023/08/08 03:39:21;;;;;;;6.57;2.88;;;;;;;21.45;62.21;100308.41;4972192;28;20066;-87
2023/08/08 03:41:47;;;;;;;7.28;2.10;;;;;;;21.51;62.04;100318.53;4971547;28;20031;-87
2023/08/08 03:44:12;;;;;;;6.55;2.00;;;;;;;21.58;63.85;100325.75;4971384;28;20027;-87
2023/08/08 03:46:38;;;;;;;8.35;1.95;;;;;;;21.59;63.60;100321.09;4971039;28;20037;-87
2023/08/08 03:49:03;;;;;;;14.88;2.05;;;;;;;21.53;63.79;100311.81;4985756;28;20114;-87
2023/08/08 03:51:29;;;;;;;4.15;1.77;;;;;;;21.43;63.54;100307.78;4970653;28;20027;-88
2023/08/08 03:53:54;;;;;;;5.63;2.08;;;;;;;21.52;64.21;100321.09;4985896;28;20088;-87
2023/08/08 03:56:20;;;;;;;5.80;1.98;;;;;;;21.48;63.75;100319.78;4970737;28;20034;-87
2023/08/08 03:58:45;;;;;;;11.90;3.05;;;;;;;21.51;63.98;100313.06;4970961;28;20039;-89
2023/08/08 04:01:11;;;;;;;6.10;2.30;;;;;;;21.62;64.36;100329.75;4971105;28;20061;-88
2023/08/08 04:03:37;;;;;;;21.52;2.10;;;;;;;21.59;63.06;100330.16;4970994;28;20027;-87
2023/08/08 04:06:03;;;;;;;7.32;2.10;;;;;;;21.59;63.83;100327.41;4969853;28;20037;-86
2023/08/08 04:08:28;;;;;;;6.45;2.45;;;;;;;21.51;63.41;100338.53;4987915;28;20061;-88
2023/08/08 04:10:54;;;;;;;5.15;1.80;;;;;;;21.62;63.92;100348.06;4989632;28;20038;-89
2023/08/08 04:13:19;;;;;;;10.77;2.15;;;;;;;21.49;63.33;100337.91;4993256;28;20050;-88
2023/08/08 04:15:45;;;;;;;4.25;2.30;;;;;;;21.68;63.61;100355.47;4996650;28;20042;-89
2023/08/08 04:18:10;;;;;;;6.43;2.25;;;;;;;21.73;63.78;100365.81;4982876;28;20038;-87
2023/08/08 04:20:36;;;;;;;6.13;1.92;;;;;;;21.66;63.23;100369.38;4992787;28;20091;-88
2023/08/08 04:23:02;;;;;;;19.92;5.10;;;;;;;21.79;62.85;100365.00;4991866;28;20137;-88
2023/08/08 04:25:28;;;;;;;13.85;3.65;;;;;;;21.87;62.67;100378.50;4991739;28;20407;-86
2023/08/08 04:27:54;;;;;;;10.15;3.20;;;;;;;21.89;62.65;100382.78;4992084;28;20042;-86
2023/08/08 04:30:19;;;;;;;3.95;2.25;;;;;;;21.78;62.97;100363.31;4991647;28;20040;-87
2023/08/08 04:32:45;;;;;;;13.13;2.78;;;;;;;21.94;62.80;100376.69;4992426;28;20145;-87
2023/08/08 04:35:10;;;;;;;11.23;2.85;;;;;;;21.98;62.59;100377.97;4994725;28;20564;-90
2023/08/08 04:37:36;;;;;;;5.47;2.53;;;;;;;21.87;62.52;100362.94;4996779;28;20109;-88
2023/08/08 04:40:02;;;;;;;4.85;1.98;;;;;;;21.99;62.91;100388.72;5006316;28;20042;-87
2023/08/08 04:42:27;;;;;;;15.38;5.28;;;;;;;22.10;62.66;100384.56;4990964;28;20023;-87
2023/08/08 04:44:53;;;;;;;10.63;3.28;;;;;;;22.13;62.75;100395.94;4990363;28;20026;-88
2023/08/08 04:47:18;;;;;;;6.78;2.83;;;;;;;22.14;63.10;100397.59;4974953;28;20027;-89
2023/08/08 04:49:44;;;;;;;6.65;2.10;;;;;;;22.17;62.62;100388.97;4974245;28;20035;-88
2023/08/08 04:52:09;;;;;;;5.18;1.92;;;;;;;22.14;62.73;100400.34;4975149;28;20030;-87
2023/08/08 04:54:35;;;;;;;10.43;3.03;;;;;;;22.18;63.24;100404.38;4974231;28;20030;-87
2023/08/08 04:57:00;;;;;;;6.72;2.00;;;;;;;22.19;62.70;100386.06;4974283;28;20046;-87
2023/08/08 04:59:26;;;;;;;16.85;2.42;;;;;;;22.39;62.33;100400.66;4975097;28;20041;-87
2023/08/08 05:01:51;;;;;;;19.42;3.30;;;;;;;22.32;62.21;100398.94;4974219;28;20125;-87
2023/08/08 05:04:18;;;;;;;4.78;1.85;;;;;;;22.46;62.28;100412.47;4977943;28;20023;-89
2023/08/08 05:06:43;;;;;;;7.90;2.08;;;;;;;22.30;62.36;100401.88;4974833;28;20050;-88
2023/08/08 05:09:09;;;;;;;7.30;2.05;;;;;;;22.33;62.16;100406.94;4974853;28;20912;-87
2023/08/08 05:11:35;;;;;;;7.13;2.95;;;;;;;22.41;62.73;100414.16;4974767;28;20035;-89
2023/08/08 05:14:01;;;;;;;11.65;2.90;;;;;;;22.40;62.64;100418.78;4974397;28;20066;-89
2023/08/08 05:16:26;;;;;;;7.32;2.28;;;;;;;22.41;62.36;100420.50;4975288;28;20061;-90
2023/08/08 05:18:52;;;;;;;4.65;1.80;;;;;;;22.34;62.22;100400.44;4974519;28;20023;-90
2023/08/08 05:21:17;;;;;;;6.65;1.65;;;;;;;22.35;62.36;100404.88;4974876;28;20039;-89
2023/08/08 05:23:43;;;;;;;10.15;1.92;;;;;;;22.28;62.22;100393.03;4973031;28;20057;-88
2023/08/08 05:26:08;;;;;;;3.08;1.35;;;;;;;22.30;62.11;100418.31;4974405;28;20093;-90
2023/08/08 05:28:34;;;;;;;14.13;2.28;;;;;;;22.17;62.55;100396.34;4974269;28;20037;-88
2023/08/08 05:30:59;;;;;;;15.38;1.90;;;;;;;22.04;63.13;100399.06;4974484;28;20062;-88
2023/08/08 05:33:25;;;;;;;7.38;1.95;;;;;;;22.00;63.16;100400.50;4974579;28;20070;-88
2023/08/08 05:35:50;;;;;;;29.45;3.20;;;;;;;22.09;63.64;100432.16;4979851;28;20026;-89
2023/08/08 05:38:16;;;;;;;41.95;3.15;;;;;;;22.00;63.61;100425.16;4974589;28;20030;-88
2023/08/08 05:40:41;;;;;;;13.93;2.42;;;;;;;21.86;64.06;100426.13;4975169;28;20093;-88
2023/08/08 05:43:08;;;;;;;22.17;3.47;;;;;;;21.87;64.42;100434.13;4973997;28;20081;-90
2023/08/08 05:45:33;;;;;;;16.30;2.45;;;;;;;21.87;64.20;100438.75;4972627;28;20030;-88
2023/08/08 05:48:00;;;;;;;17.08;2.03;;;;;;;21.89;64.03;100436.69;4973709;28;20019;-89
2023/08/08 05:50:27;;;;;;;12.77;2.15;;;;;;;21.79;63.99;100415.13;4974092;28;20458;-91
2023/08/08 05:52:53;;;;;;;28.13;3.40;;;;;;;21.87;63.60;100423.16;4973571;28;20033;-90
2023/08/08 05:55:18;;;;;;;4.35;1.88;;;;;;;22.03;63.67;100442.03;4974542;28;20087;-90
2023/08/08 05:57:43;;;;;;;22.83;3.42;;;;;;;21.86;63.34;100428.88;4974049;28;20089;-89
2023/08/08 06:00:11;;;;;;;2.78;1.77;;;;;;;21.99;63.32;100457.19;4974037;28;20050;-89
2023/08/08 06:02:37;;;;;;;20.83;2.13;;;;;;;22.02;64.09;100462.25;4974059;28;20057;-90
2023/08/08 06:05:03;;;;;;;15.60;2.72;;;;;;;22.00;63.89;100466.25;4973945;28;20058;-88
2023/08/08 06:07:29;;;;;;;10.13;2.47;;;;;;;22.02;63.87;100483.31;4974830;28;20058;-89
2023/08/08 06:09:54;;;;;;;11.27;2.45;;;;;;;22.02;64.26;100475.94;4973765;28;20634;-89
2023/08/08 06:12:19;;;;;;;4.70;1.63;;;;;;;22.07;64.14;100484.41;4974409;28;20501;-89
2023/08/08 06:14:45;;;;;;;4.15;1.90;;;;;;;21.99;64.57;100495.53;4974537;28;20034;-90
2023/08/08 06:17:10;;;;;;;11.32;2.17;;;;;;;22.04;64.27;100522.31;4974832;28;20061;-88
2023/08/08 06:19:36;;;;;;;11.95;1.92;;;;;;;21.97;64.29;100514.06;4973889;28;20104;-90
2023/08/08 06:22:03;;;;;;;6.18;2.42;;;;;;;22.00;64.46;100540.19;4973603;28;20034;-90
2023/08/08 06:24:28;;;;;;;12.02;2.45;;;;;;;21.97;64.73;100513.22;4974164;28;20030;-90
2023/08/08 06:26:54;;;;;;;8.13;2.33;;;;;;;22.02;64.01;100502.47;4974902;28;20034;-90
2023/08/08 06:29:19;;;;;;;14.98;2.40;;;;;;;22.03;63.92;100494.06;4974481;28;20027;-89
2023/08/08 06:31:44;;;;;;;16.83;3.53;;;;;;;22.23;63.72;100516.94;4980582;28;20047;-90
2023/08/08 06:34:10;;;;;;;5.10;2.50;;;;;;;22.29;62.90;100525.41;4993760;28;20081;-89
2023/08/08 06:36:36;;;;;;;6.13;1.58;;;;;;;22.45;62.79;100536.84;4976680;28;20030;-90
2023/08/08 06:39:01;;;;;;;4.50;1.90;;;;;;;22.39;62.06;100504.78;4974422;28;20058;-90
2023/08/08 06:41:26;;;;;;;8.93;2.03;;;;;;;22.66;61.58;100530.44;4975024;28;20090;-88
2023/08/08 06:43:52;;;;;;;22.35;2.80;;;;;;;22.66;60.51;100520.31;4974286;28;20027;-91
2023/08/08 06:46:20;;;;;;;21.58;3.28;;;;;;;22.68;60.02;100526.47;4975042;28;20046;-88
2023/08/08 06:48:46;;;;;;;7.57;2.17;;;;;;;22.67;60.16;100529.38;4992385;28;20744;-89
2023/08/08 06:51:12;;;;;;;6.20;1.63;;;;;;;22.60;59.69;100523.84;4990453;28;20406;-89
2023/08/08 06:53:37;;;;;;;7.82;1.60;;;;;;;22.74;59.58;100550.31;4990633;28;20038;-91
2023/08/08 06:56:03;;;;;;;6.65;2.13;;;;;;;22.82;59.29;100548.41;4990297;28;20121;-92
2023/08/08 06:58:29;;;;;;;12.90;2.20;;;;;;;22.91;58.96;100563.63;4957790;28;20465;-90
2023/08/08 07:00:54;;;;;;;18.20;2.28;;;;;;;23.00;58.49;100556.91;4990419;28;20497;-90
2023/08/08 07:03:19;;;;;;;9.80;2.03;;;;;;;22.94;58.50;100563.22;4991015;28;20062;-90
2023/08/08 07:05:47;;;;;;;7.30;2.58;;;;;;;22.99;58.50;100574.44;4990059;28;20030;-90
2023/08/08 07:08:12;;;;;;;13.70;2.08;;;;;;;23.01;58.24;100569.59;4991540;28;20072;-91
2023/08/08 07:10:38;;;;;;;17.75;2.15;;;;;;;22.88;58.14;100558.56;4994781;28;20034;-91
2023/08/08 07:13:04;;;;;;;11.48;3.65;;;;;;;22.90;58.57;100573.78;4992227;28;20037;-89
2023/08/08 07:15:30;;;;;;;1.95;1.63;;;;;;;22.84;58.49;100580.09;4975091;28;20706;-90
2023/08/08 07:17:55;;;;;;;6.72;1.60;;;;;;;22.67;58.37;100538.47;4991895;28;20022;-89
2023/08/08 07:20:22;;;;;;;8.27;2.35;;;;;;;22.84;58.50;100544.44;4994009;28;20047;-88
2023/08/08 07:22:49;;;;;;;14.25;2.33;;;;;;;23.15;57.92;100574.88;4992311;28;20055;-90
2023/08/08 07:25:14;;;;;;;13.32;2.60;;;;;;;23.12;57.50;100571.72;4991274;28;20109;-90
2023/08/08 07:27:40;;;;;;;6.70;2.20;;;;;;;23.19;57.12;100562.47;4990917;28;20027;-89
2023/08/08 07:30:06;;;;;;;5.18;2.53;;;;;;;23.16;57.40;100579.34;4984410;28;20466;-88
2023/08/08 07:32:33;;;;;;;8.65;2.40;;;;;;;23.12;56.99;100568.97;4987066;28;20031;-90
2023/08/08 07:34:58;;;;;;;10.43;3.08;;;;;;;23.15;57.05;100576.78;4990228;28;20022;-89
2023/08/08 07:37:24;;;;;;;17.55;3.97;;;;;;;23.17;56.62;100574.69;4984941;28;20034;-90
2023/08/08 07:39:51;;;;;;;12.15;2.60;;;;;;;23.33;56.61;100579.81;5005916;28;20023;-89
2023/08/08 07:42:17;;;;;;;11.00;2.95;;;;;;;23.39;55.52;100578.13;4996503;28;20027;-89
2023/08/08 07:44:42;;;;;;;6.18;1.88;;;;;;;23.37;54.79;100577.47;4996371;28;20080;-88
2023/08/08 07:47:08;;;;;;;7.22;1.70;;;;;;;23.40;54.43;100585.31;5011670;28;20101;-88
2023/08/08 07:49:33;;;;;;;4.72;1.77;;;;;;;23.43;54.32;100593.97;4997551;28;20031;-89
2023/08/08 07:51:59;;;;;;;3.55;1.83;;;;;;;23.41;53.94;100587.88;4994988;28;20043;-88
2023/08/08 07:54:24;;;;;;;10.20;2.17;;;;;;;23.30;54.33;100578.28;4988028;28;20490;-88
2023/08/08 07:56:50;;;;;;;17.77;2.03;;;;;;;23.48;53.98;100602.47;4975970;28;20026;-88
2023/08/08 07:59:16;;;;;;;8.80;1.80;;;;;;;23.30;53.86;100585.72;4987424;28;20035;-88
2023/08/08 08:01:41;;;;;;;5.15;1.65;;;;;;;23.18;54.03;100599.19;4988132;28;20057;-88
2023/08/08 08:04:07;;;;;;;5.65;1.77;;;;;;;23.08;54.32;100571.31;4980254;28;20031;-88
2023/08/08 08:06:32;;;;;;;7.55;1.75;;;;;;;23.13;55.17;100598.09;4972699;28;20487;-88
2023/08/08 08:08:58;;;;;;;14.15;2.10;;;;;;;23.04;55.36;100602.09;4972006;28;20058;-88
2023/08/08 08:11:23;;;;;;;21.65;3.15;;;;;;;23.02;55.24;100601.47;4986563;28;20094;-89
2023/08/08 08:13:49;;;;;;;12.82;2.28;;;;;;;22.84;55.26;100582.00;4972033;28;20027;-88
2023/08/08 08:16:14;;;;;;;22.63;3.33;;;;;;;22.96;54.29;100600.41;4971262;28;20109;-88
2023/08/08 08:18:40;;;;;;;12.55;2.63;;;;;;;22.98;54.05;100592.78;4972153;28;20027;-90
2023/08/08 08:21:05;;;;;;;13.30;2.13;;;;;;;23.11;53.90;100614.78;4973328;28;20387;-89
2023/08/08 08:23:32;;;;;;;10.80;1.65;;;;;;;23.27;54.16;100580.63;4979057;28;20086;-89
2023/08/08 08:25:58;;;;;;;6.40;1.90;;;;;;;23.60;53.53;100588.94;5003431;28;20035;-90
2023/08/08 08:28:23;;;;;;;7.18;1.88;;;;;;;23.69;53.28;100591.28;4972124;28;20027;-90
2023/08/08 08:30:49;;;;;;;7.45;2.08;;;;;;;23.78;53.54;100584.50;4974098;28;20580;-89
2023/08/08 08:33:15;;;;;;;9.40;2.17;;;;;;;23.96;53.00;100599.50;4987387;28;20452;-89
2023/08/08 08:35:40;;;;;;;8.60;1.60;;;;;;;24.04;53.38;100593.78;4971860;28;20110;-88
2023/08/08 08:38:06;;;;;;;19.35;2.13;;;;;;;24.11;53.23;100605.66;4953273;28;20039;-88
2023/08/08 08:40:37;;;;;;;13.50;2.22;;;;;;;24.26;52.59;100587.00;4971534;28;20034;-89
2023/08/08 08:43:04;;;;;;;5.93;1.80;;;;;;;24.17;53.06;100596.53;4971624;28;20034;-88
2023/08/08 08:45:30;;;;;;;15.73;2.33;;;;;;;24.05;53.10;100600.97;4971240;28;20035;-88
2023/08/08 08:47:57;;;;;;;25.92;3.25;;;;;;;24.01;53.82;100572.22;4954129;28;20034;-88
2023/08/08 08:50:27;;;;;;;8.48;1.98;;;;;;;24.19;53.59;100595.28;4973797;28;20035;-90
2023/08/08 08:52:55;;;;;;;4.13;2.38;;;;;;;24.17;52.84;100582.81;4973779;28;20030;-88
2023/08/08 08:55:21;;;;;;;4.07;1.95;;;;;;;24.22;52.69;100583.00;4974365;28;20023;-91
2023/08/08 08:57:47;;;;;;;8.57;2.17;;;;;;;24.38;52.76;100586.13;4981041;28;20176;-88
2023/08/08 09:00:13;;;;;;;6.97;1.83;;;;;;;24.18;52.64;100568.00;4977808;28;20070;-89
2023/08/08 09:02:39;;;;;;;8.32;2.08;;;;;;;24.09;53.22;100586.59;4977692;28;20042;-90
2023/08/08 09:05:05;;;;;;;5.47;1.98;;;;;;;23.99;52.84;100577.09;4977593;28;20110;-89
2023/08/08 09:07:32;;;;;;;6.18;2.55;;;;;;;24.01;52.78;100567.56;4977477;28;20110;-91
2023/08/08 09:09:58;;;;;;;12.80;2.50;;;;;;;24.05;53.11;100576.25;4977341;28;20027;-90
2023/08/08 09:12:24;;;;;;;5.75;2.15;;;;;;;24.19;52.88;100595.28;4976332;28;20030;-89
2023/08/08 09:14:58;;;;;;;12.07;2.72;;;;;;;24.19;52.32;100576.03;4978577;28;20085;-91
2023/08/08 09:17:27;;;;;;;11.93;2.10;;;;;;;23.99;51.43;100591.69;4977063;28;20058;-89
2023/08/08 09:19:58;;;;;;;7.35;2.40;;;;;;;23.91;52.44;100607.53;4975745;28;20031;-90
2023/08/08 09:22:24;;;;;;;5.88;2.00;;;;;;;23.70;53.20;100592.94;4977550;28;20394;-90
2023/08/08 09:24:49;;;;;;;13.35;2.15;;;;;;;23.81;53.38;100616.19;4977499;28;20022;-89
2023/08/08 09:27:15;;;;;;;12.18;2.30;;;;;;;23.67;54.07;100606.25;4991961;28;20514;-89
2023/08/08 09:29:41;;;;;;;10.45;2.05;;;;;;;23.87;53.77;100620.00;4976667;28;20027;-91
2023/08/08 09:32:07;;;;;;;8.77;3.05;;;;;;;23.81;54.17;100619.81;4976470;28;20039;-89
2023/08/08 09:34:33;;;;;;;4.18;1.67;;;;;;;23.74;54.31;100616.19;4977025;28;20514;-90
2023/08/08 09:37:00;;;;;;;24.10;2.45;;;;;;;23.69;53.95;100617.88;4976581;28;20027;-87
2023/08/08 09:39:26;;;;;;;8.68;1.77;;;;;;;23.70;54.26;100614.91;4976536;28;20042;-88
2023/08/08 09:41:51;;;;;;;7.18;2.42;;;;;;;23.60;54.69;100606.28;4977614;28;20035;-88
2023/08/08 09:44:17;;;;;;;14.70;4.88;;;;;;;23.68;55.04;100622.53;4977848;28;20093;-89
2023/08/08 09:46:43;;;;;;;3.95;1.80;;;;;;;23.61;54.59;100616.19;4992956;28;20521;-89
2023/08/08 09:49:11;;;;;;;3.42;2.10;;;;;;;23.55;54.61;100611.53;4989047;28;20041;-88
2023/08/08 09:51:36;;;;;;;12.00;2.75;;;;;;;23.41;55.00;100620.81;4973877;28;20027;-89
2023/08/08 09:54:04;;;;;;;7.47;2.20;;;;;;;23.45;55.38;100619.34;4976222;28;20093;-88
2023/08/08 09:56:31;;;;;;;5.10;2.47;;;;;;;23.34;56.06;100617.16;4984473;28;20038;-88
2023/08/08 09:58:57;;;;;;;3.80;2.03;;;;;;;23.32;55.67;100605.56;4994872;28;20090;-89
2023/08/08 10:01:22;;;;;;;13.73;3.15;;;;;;;23.24;56.13;100609.31;4995044;28;20051;-87
2023/08/08 10:03:51;;;;;;;27.92;4.60;;;;;;;23.26;55.77;100617.34;4994987;28;20054;-88
2023/08/08 10:06:16;;;;;;;6.70;2.25;;;;;;;23.23;54.98;100623.25;4995393;28;20026;-89
2023/08/08 10:08:42;;;;;;;5.88;2.13;;;;;;;23.02;55.10;100588.59;4996249;28;20014;-89
2023/08/08 10:11:10;;;;;;;4.22;1.88;;;;;;;22.92;55.05;100601.00;4998720;28;20037;-87
2023/08/08 10:13:36;;;;;;;4.68;2.10;;;;;;;22.85;55.82;100608.34;5013335;28;20026;-89
2023/08/08 10:16:08;;;;;;;8.00;2.42;;;;;;;22.90;56.43;100617.69;4994095;28;20015;-89
2023/08/08 10:18:33;;;;;;;5.90;2.17;;;;;;;22.91;56.53;100602.03;5012951;28;20030;-88
2023/08/08 10:20:59;;;;;;;5.32;1.95;;;;;;;22.99;56.20;100610.97;4997338;28;20043;-89
2023/08/08 10:23:24;;;;;;;3.38;1.95;;;;;;;22.80;56.12;100598.00;4997512;28;20038;-91
2023/08/08 10:25:52;;;;;;;2.63;1.60;;;;;;;22.79;56.96;100604.53;4997776;28;20027;-88
2023/08/08 10:28:20;;;;;;;5.35;2.10;;;;;;;22.72;56.88;100588.03;4997464;28;20058;-88
2023/08/08 10:31:01;;;;;;;10.95;1.90;;;;;;;22.94;56.78;100626.31;4997067;28;20027;-89
2023/08/08 10:33:43;;;;;;;14.32;3.05;;;;;;;22.91;56.62;100621.25;5009189;28;20019;-90
2023/08/08 10:36:09;;;;;;;16.77;2.78;;;;;;;22.93;57.01;100628.25;4997315;28;20027;-87
2023/08/08 10:38:54;;;;;;;6.20;2.45;;;;;;;22.98;56.92;100631.19;4996092;28;20078;-89
2023/08/08 10:41:21;;;;;;;10.10;2.42;;;;;;;22.94;56.10;100634.53;4997154;28;20057;-88
2023/08/08 10:43:52;;;;;;;3.28;2.50;;;;;;;22.67;56.58;100628.09;4997047;28;20035;-88
2023/08/08 10:46:28;;;;;;;6.32;1.80;;;;;;;22.49;57.67;100652.44;4997655;28;20023;-87
2023/08/08 10:48:56;;;;;;;4.03;2.10;;;;;;;22.26;58.19;100635.41;4996458;28;20095;-87
2023/08/08 10:51:22;;;;;;;4.13;1.70;;;;;;;22.15;58.62;100645.03;4997150;28;20086;-88
2023/08/08 10:53:51;;;;;;;6.07;2.83;;;;;;;22.01;59.08;100645.97;4996881;28;20030;-86
2023/08/08 10:56:18;;;;;;;16.05;3.45;;;;;;;22.03;59.25;100660.31;4997312;28;20031;-88
2023/08/08 10:58:48;;;;;;;6.80;2.42;;;;;;;21.98;59.40;100654.59;4994968;28;20043;-89
2023/08/08 11:01:14;;;;;;;8.73;2.72;;;;;;;21.93;59.48;100643.38;4986931;28;20375;-88
2023/08/08 11:03:41;;;;;;;6.75;2.50;;;;;;;21.87;59.80;100635.91;4990794;28;20046;-90
2023/08/08 11:06:08;;;;;;;5.70;2.67;;;;;;;21.85;59.90;100625.16;4989513;28;20033;-89
2023/08/08 11:08:34;;;;;;;4.75;3.28;;;;;;;21.98;59.80;100649.13;4988240;28;20079;-88
2023/08/08 11:11:00;;;;;;;13.77;3.33;;;;;;;21.90;60.10;100630.06;4983593;28;20041;-90
2023/08/08 11:13:26;;;;;;;5.50;3.30;;;;;;;21.86;60.21;100643.31;4981835;28;20027;-88
2023/08/08 11:15:52;;;;;;;10.82;2.45;;;;;;;21.93;60.83;100638.75;4980942;28;20026;-90
2023/08/08 11:18:17;;;;;;;6.03;2.10;;;;;;;21.88;61.00;100649.44;4979005;28;20034;-91